Time;durP1;ratioP1;P1;durP2;ratioP2;P2;SDS_P1;SDS_P2;PMS_P1;PMS_P2;Temp;Humidity;BMP_temperature;BMP_pressure;BME280_temperature;BME280_humidity;BME280_pressure;Samples;Min_cycle;Max_cycle;Signal;HPM_P1;HPM_P2
2022/08/28 00:00:53;;;;;;;10.25;2.70;;;16.00;99.90;;;;;;5005885;28;20120;-59
2022/08/28 00:03:19;;;;;;;7.65;2.63;;;15.80;99.90;;;;;;5022674;28;20038;-59
2022/08/28 00:05:45;;;;;;;8.00;2.67;;;15.70;99.90;;;;;;5022858;28;20060;-59
2022/08/28 00:08:12;;;;;;;7.90;2.67;;;15.60;99.90;;;;;;5023402;28;20497;-60
2022/08/28 00:10:39;;;;;;;9.27;2.58;;;15.60;99.90;;;;;;5022549;28;20037;-59
2022/08/28 00:13:07;;;;;;;6.53;2.42;;;15.70;99.90;;;;;;5004936;28;20045;-60
2022/08/28 00:15:36;;;;;;;9.80;2.58;;;15.70;99.90;;;;;;5005667;28;20136;-59
2022/08/28 00:18:03;;;;;;;7.72;2.60;;;15.60;99.90;;;;;;5022698;28;20045;-60
2022/08/28 00:20:31;;;;;;;9.45;3.00;;;15.50;99.90;;;;;;5023165;28;20033;-59
2022/08/28 00:22:58;;;;;;;9.13;2.78;;;15.50;99.90;;;;;;5023043;28;20053;-59
2022/08/28 00:25:26;;;;;;;10.52;2.72;;;15.40;99.90;;;;;;5023321;28;20041;-59
2022/08/28 00:27:56;;;;;;;15.32;3.13;;;15.40;99.90;;;;;;5004464;28;20045;-59
2022/08/28 00:30:24;;;;;;;8.43;2.55;;;15.40;99.90;;;;;;5005013;28;20138;-59
2022/08/28 00:32:54;;;;;;;10.02;2.47;;;15.30;99.90;;;;;;5023202;28;20169;-59
2022/08/28 00:35:22;;;;;;;8.95;2.55;;;15.30;99.90;;;;;;5022923;28;20104;-59
2022/08/28 00:37:49;;;;;;;7.80;2.72;;;15.30;99.90;;;;;;5023174;28;20135;-59
2022/08/28 00:40:17;;;;;;;9.35;2.83;;;15.30;99.90;;;;;;5022835;28;20128;-59
2022/08/28 00:42:45;;;;;;;11.25;2.55;;;15.20;99.90;;;;;;5021157;28;20540;-60
2022/08/28 00:45:12;;;;;;;10.40;2.58;;;15.30;99.90;;;;;;5022543;28;20175;-59
2022/08/28 00:47:38;;;;;;;6.13;2.33;;;15.20;99.90;;;;;;5022496;28;20037;-59
2022/08/28 00:50:08;;;;;;;11.73;3.17;;;15.20;99.90;;;;;;5022079;28;20503;-59
2022/08/28 00:52:34;;;;;;;9.77;2.25;;;15.20;99.90;;;;;;5023183;28;20766;-59
2022/08/28 00:55:06;;;;;;;10.85;2.85;;;15.20;99.90;;;;;;5022624;28;20053;-59
2022/08/28 00:57:53;;;;;;;11.68;2.78;;;15.10;99.90;;;;;;5021199;28;20685;-59
2022/08/28 01:00:26;;;;;;;7.95;2.47;;;15.20;99.90;;;;;;5022722;28;20498;-59
2022/08/28 01:02:52;;;;;;;9.10;2.70;;;15.30;99.90;;;;;;5021743;28;20041;-59
2022/08/28 01:05:19;;;;;;;9.27;2.58;;;15.20;99.90;;;;;;5021460;28;20046;-59
2022/08/28 01:07:46;;;;;;;7.72;2.40;;;15.20;99.90;;;;;;5022366;28;20408;-59
2022/08/28 01:10:17;;;;;;;10.68;2.70;;;15.10;99.90;;;;;;5042454;23;20049;-57
2022/08/28 01:12:43;;;;;;;14.93;3.00;;;15.10;99.90;;;;;;5028264;28;20049;-57
2022/08/28 01:15:13;;;;;;;10.43;2.83;;;15.10;99.90;;;;;;5036254;28;20036;-58
2022/08/28 01:17:47;;;;;;;10.10;2.78;;;15.20;99.90;;;;;;5061583;28;20057;-58
2022/08/28 01:20:15;;;;;;;;;;;15.30;99.90;;;;;;5062460;28;20079;-58
2022/08/28 01:22:56;;;;;;;7.90;3.00;;;15.30;99.90;;;;;;5062054;28;19978;-58
2022/08/28 01:25:25;;;;;;;11.25;3.17;;;15.40;99.90;;;;;;5061624;28;20037;-58
2022/08/28 01:27:50;;;;;;;8.60;2.50;;;15.30;99.90;;;;;;5060948;28;20119;-58
2022/08/28 01:30:20;;;;;;;9.63;3.13;;;15.40;99.90;;;;;;5062225;28;20048;-58
2022/08/28 01:32:49;;;;;;;7.50;2.70;;;15.30;99.90;;;;;;5061082;28;20059;-58
2022/08/28 01:35:22;;;;;;;9.75;2.70;;;15.20;99.90;;;;;;5061157;28;20044;-57
2022/08/28 01:37:47;;;;;;;6.97;2.65;;;15.10;99.90;;;;;;5061313;28;20052;-58
2022/08/28 01:40:19;;;;;;;9.73;3.03;;;15.10;99.90;;;;;;5061137;28;20044;-58
2022/08/28 01:42:45;;;;;;;9.77;2.53;;;15.10;99.90;;;;;;5060859;28;20056;-58
2022/08/28 01:45:16;;;;;;;10.80;3.15;;;15.00;99.90;;;;;;5061827;28;20036;-58
2022/08/28 01:47:44;;;;;;;11.27;3.20;;;15.10;99.90;;;;;;5026473;28;20037;-57
2022/08/28 01:50:17;;;;;;;11.23;3.28;;;15.00;99.90;;;;;;5061363;28;20715;-57
2022/08/28 01:52:43;;;;;;;7.20;2.60;;;15.10;99.90;;;;;;5061224;28;20040;-58
2022/08/28 01:55:10;;;;;;;14.60;3.42;;;15.20;99.90;;;;;;5042315;28;20094;-58
2022/08/28 01:57:43;;;;;;;8.57;2.90;;;15.20;99.90;;;;;;5060605;28;20127;-58
2022/08/28 02:00:10;;;;;;;9.85;2.90;;;15.20;99.90;;;;;;5061460;28;20040;-57
2022/08/28 02:02:35;;;;;;;11.00;2.90;;;15.20;99.90;;;;;;5060653;28;20105;-57
2022/08/28 02:05:01;;;;;;;12.50;3.15;;;15.10;99.90;;;;;;5061227;28;20123;-58
2022/08/28 02:07:27;;;;;;;7.55;2.58;;;15.00;99.90;;;;;;5041360;28;20183;-58
2022/08/28 02:09:52;;;;;;;11.85;3.47;;;15.00;99.90;;;;;;5040355;28;20067;-59
2022/08/28 02:12:19;;;;;;;11.50;3.10;;;14.90;99.90;;;;;;5040663;28;20061;-58
2022/08/28 02:14:45;;;;;;;12.50;3.40;;;14.90;99.90;;;;;;5040767;28;20041;-58
2022/08/28 02:17:10;;;;;;;10.93;2.90;;;14.90;99.90;;;;;;5041230;28;20048;-59
2022/08/28 02:19:36;;;;;;;9.05;2.70;;;14.90;99.90;;;;;;5040462;28;20056;-55
2022/08/28 02:22:07;;;;;;;10.40;2.83;;;14.90;99.90;;;;;;5041313;28;20566;-59
2022/08/28 02:24:33;;;;;;;12.75;2.95;;;14.90;99.90;;;;;;5041601;28;20045;-59
2022/08/28 02:27:00;;;;;;;8.63;2.97;;;14.80;99.90;;;;;;5039813;28;20048;-58
2022/08/28 02:29:26;;;;;;;9.25;2.80;;;14.80;99.90;;;;;;5040632;28;20128;-59
2022/08/28 02:31:51;;;;;;;8.43;2.72;;;14.80;99.90;;;;;;5041176;28;20190;-58
2022/08/28 02:34:17;;;;;;;9.55;3.10;;;14.90;99.90;;;;;;5022714;28;20040;-59
2022/08/28 02:36:43;;;;;;;8.00;2.42;;;14.90;99.90;;;;;;5040570;28;20045;-59
2022/08/28 02:39:09;;;;;;;8.82;2.80;;;14.80;99.90;;;;;;5040973;28;20502;-58
2022/08/28 02:41:35;;;;;;;10.30;3.33;;;14.80;99.90;;;;;;5039911;28;20120;-58
2022/08/28 02:44:01;;;;;;;7.75;2.80;;;14.80;99.90;;;;;;5040397;28;20610;-58
2022/08/28 02:46:26;;;;;;;10.70;2.70;;;14.90;99.90;;;;;;5041113;28;20044;-59
2022/08/28 02:48:52;;;;;;;10.90;3.05;;;14.90;99.90;;;;;;5040870;28;20048;-58
2022/08/28 02:51:18;;;;;;;8.27;3.22;;;14.90;99.90;;;;;;5040875;28;20438;-58
2022/08/28 02:53:45;;;;;;;8.43;2.80;;;14.90;99.90;;;;;;5040358;28;20037;-58
2022/08/28 02:56:11;;;;;;;9.93;2.83;;;14.80;99.90;;;;;;5039739;28;20048;-58
2022/08/28 02:58:38;;;;;;;9.07;2.58;;;14.80;99.90;;;;;;5040386;28;20048;-54
2022/08/28 03:01:05;;;;;;;9.65;2.83;;;14.80;99.90;;;;;;5040543;28;20052;-59
2022/08/28 03:03:32;;;;;;;9.40;3.22;;;14.70;99.90;;;;;;5041304;28;20482;-59
2022/08/28 03:06:00;;;;;;;11.02;3.20;;;14.70;99.90;;;;;;5040004;28;20041;-59
2022/08/28 03:08:28;;;;;;;9.27;3.20;;;14.70;99.90;;;;;;5043712;28;20064;-59
2022/08/28 03:10:54;;;;;;;10.43;3.15;;;14.60;99.90;;;;;;5043551;28;20052;-58
2022/08/28 03:13:20;;;;;;;9.75;2.78;;;14.60;99.90;;;;;;5044490;28;20048;-58
2022/08/28 03:15:46;;;;;;;11.57;3.35;;;14.70;99.90;;;;;;5043957;28;20662;-58
2022/08/28 03:18:13;;;;;;;9.10;3.22;;;14.70;99.90;;;;;;5044327;28;20037;-58
2022/08/28 03:20:39;;;;;;;8.10;2.90;;;14.60;99.90;;;;;;5044620;28;20049;-59
2022/08/28 03:25:50;;;;;;;11.57;2.80;;;14.60;99.90;;;;;;5043564;28;20223;-58
2022/08/28 03:28:16;;;;;;;9.05;3.05;;;14.60;99.90;;;;;;5044741;28;20045;-58
2022/08/28 03:30:41;;;;;;;12.98;3.40;;;14.50;99.90;;;;;;5043738;28;20037;-58
2022/08/28 03:33:08;;;;;;;7.55;2.75;;;14.50;99.90;;;;;;5042978;28;20051;-58
2022/08/28 03:35:36;;;;;;;7.38;2.60;;;14.50;99.90;;;;;;5044376;28;20041;-58
2022/08/28 03:38:02;;;;;;;8.00;2.42;;;14.50;99.90;;;;;;5044323;28;20091;-58
2022/08/28 03:40:27;;;;;;;10.98;3.17;;;14.60;99.90;;;;;;5043698;28;20053;-58
2022/08/28 03:42:53;;;;;;;9.43;3.03;;;14.50;99.90;;;;;;5043080;28;20080;-58
2022/08/28 03:45:20;;;;;;;12.73;2.97;;;14.50;99.90;;;;;;5043919;28;20601;-59
2022/08/28 03:47:45;;;;;;;10.55;3.00;;;14.40;99.90;;;;;;5025187;28;20098;-58
2022/08/28 03:50:12;;;;;;;9.32;2.80;;;14.40;99.90;;;;;;5043643;28;20045;-59
2022/08/28 03:52:39;;;;;;;8.38;2.50;;;14.40;99.90;;;;;;5044337;28;20045;-57
2022/08/28 03:55:07;;;;;;;12.05;2.80;;;14.30;99.90;;;;;;5043763;28;20572;-58
2022/08/28 03:57:34;;;;;;;11.48;3.25;;;14.30;99.90;;;;;;5042700;28;20037;-58
2022/08/28 04:00:01;;;;;;;8.45;2.70;;;14.40;99.90;;;;;;5043881;28;20059;-58
2022/08/28 04:02:26;;;;;;;8.35;2.67;;;14.40;99.90;;;;;;5043658;28;20100;-59
2022/08/28 04:04:52;;;;;;;8.02;2.60;;;14.40;99.90;;;;;;5042828;28;20949;-58
2022/08/28 04:07:19;;;;;;;7.47;2.88;;;14.40;99.90;;;;;;5042917;28;20090;-58
2022/08/28 04:09:45;;;;;;;6.57;2.75;;;14.40;99.90;;;;;;5024890;28;20140;-58
2022/08/28 04:12:11;;;;;;;9.65;2.97;;;14.40;99.90;;;;;;5043028;28;20052;-58
2022/08/28 04:14:37;;;;;;;11.35;3.10;;;14.30;99.90;;;;;;5043027;28;20380;-57
2022/08/28 04:17:04;;;;;;;7.60;2.55;;;14.30;99.90;;;;;;5043479;28;20729;-58
2022/08/28 04:19:30;;;;;;;10.05;2.90;;;14.30;99.90;;;;;;5025020;28;20049;-57
2022/08/28 04:21:55;;;;;;;8.73;2.60;;;14.40;99.90;;;;;;5042337;28;20549;-58
2022/08/28 04:24:22;;;;;;;9.00;3.00;;;14.50;99.90;;;;;;5043319;28;20048;-59
2022/08/28 04:26:48;;;;;;;13.27;3.15;;;14.40;99.90;;;;;;5042658;28;20503;-58
2022/08/28 04:29:14;;;;;;;11.00;2.53;;;14.40;99.90;;;;;;5043337;28;20631;-58
2022/08/28 04:31:41;;;;;;;7.60;2.70;;;14.30;99.90;;;;;;5024679;28;20090;-59
2022/08/28 04:34:09;;;;;;;8.40;2.70;;;14.40;99.90;;;;;;5042662;28;20123;-58
2022/08/28 04:36:35;;;;;;;10.40;2.40;;;14.30;99.90;;;;;;5041690;28;20044;-57
2022/08/28 04:39:04;;;;;;;8.90;2.88;;;14.30;99.90;;;;;;5043018;28;20048;-58
2022/08/28 04:41:30;;;;;;;9.98;2.47;;;14.30;99.90;;;;;;5042765;28;20060;-58
2022/08/28 04:43:57;;;;;;;14.25;3.38;;;14.30;99.90;;;;;;5042527;28;20684;-58
2022/08/28 04:46:23;;;;;;;6.00;2.45;;;14.30;99.90;;;;;;5042223;28;20045;-58
2022/08/28 04:48:49;;;;;;;7.18;2.28;;;14.30;99.90;;;;;;5042909;28;20048;-58
2022/08/28 04:51:15;;;;;;;8.93;2.60;;;14.40;99.90;;;;;;5042499;28;20045;-57
2022/08/28 04:53:42;;;;;;;8.13;2.33;;;14.30;99.90;;;;;;5043068;28;20132;-57
2022/08/28 04:56:11;;;;;;;7.13;2.53;;;14.30;99.90;;;;;;5041039;28;20398;-57
2022/08/28 04:58:38;;;;;;;7.53;2.40;;;14.40;99.90;;;;;;5042587;28;20048;-57
2022/08/28 05:01:19;;;;;;;6.82;2.50;;;14.50;99.90;;;;;;5042988;28;20095;-59
2022/08/28 05:03:47;;;;;;;9.60;2.65;;;14.50;99.90;;;;;;5042499;28;20728;-58
2022/08/28 05:06:14;;;;;;;10.32;2.80;;;14.50;99.90;;;;;;5041901;28;20048;-60
2022/08/28 05:08:40;;;;;;;6.72;2.13;;;14.50;99.90;;;;;;5041916;28;20045;-58
2022/08/28 05:11:15;;;;;;;8.23;2.70;;;14.50;99.90;;;;;;5041600;28;20049;-58
2022/08/28 05:13:42;;;;;;;8.05;2.28;;;14.60;99.90;;;;;;5042452;28;20043;-58
2022/08/28 05:16:08;;;;;;;11.40;2.30;;;14.60;99.90;;;;;;5041840;28;20572;-58
2022/08/28 05:18:34;;;;;;;8.23;2.03;;;14.60;99.90;;;;;;5042449;28;20044;-58
2022/08/28 05:21:01;;;;;;;6.68;2.28;;;14.70;99.90;;;;;;5042625;28;20077;-58
2022/08/28 05:23:27;;;;;;;8.45;2.15;;;14.70;99.90;;;;;;5041923;28;20037;-58
2022/08/28 05:25:54;;;;;;;8.77;2.50;;;14.70;99.90;;;;;;5040749;28;20128;-58
2022/08/28 05:28:20;;;;;;;7.90;2.25;;;14.70;99.90;;;;;;5042095;28;20116;-58
2022/08/28 05:30:46;;;;;;;8.60;2.35;;;14.70;99.90;;;;;;5041401;28;20067;-58
2022/08/28 05:33:13;;;;;;;8.00;2.33;;;14.70;99.90;;;;;;5041560;28;20496;-58
2022/08/28 05:35:41;;;;;;;7.13;2.33;;;14.80;99.90;;;;;;5041699;28;20052;-57
2022/08/28 05:38:07;;;;;;;8.20;2.38;;;14.90;99.90;;;;;;5041923;28;20138;-58
2022/08/28 05:40:43;;;;;;;6.35;2.42;;;15.00;99.90;;;;;;5041713;28;20044;-59
2022/08/28 05:43:11;;;;;;;6.90;1.90;;;15.00;99.90;;;;;;5041723;28;20049;-59
2022/08/28 05:45:37;;;;;;;8.15;2.10;;;15.20;99.90;;;;;;5023609;28;20044;-57
2022/08/28 05:48:03;;;;;;;9.52;2.30;;;15.70;99.90;;;;;;5041267;28;20195;-58
2022/08/28 05:50:30;;;;;;;8.38;2.10;;;16.10;99.90;;;;;;5041834;28;20044;-57
2022/08/28 05:52:56;;;;;;;8.07;1.77;;;16.70;99.90;;;;;;5041328;28;20053;-57
2022/08/28 05:55:22;;;;;;;7.03;2.22;;;17.20;99.90;;;;;;5040496;28;20051;-58
2022/08/28 05:57:48;;;;;;;8.75;2.10;;;17.40;99.90;;;;;;5040558;28;20052;-57
2022/08/28 06:00:14;;;;;;;9.50;2.50;;;17.60;99.90;;;;;;5041228;28;20041;-58
2022/08/28 06:02:40;;;;;;;6.15;1.92;;;17.60;99.90;;;;;;5041362;28;20037;-57
2022/08/28 06:05:07;;;;;;;10.93;2.25;;;17.50;99.90;;;;;;5040346;28;20084;-59
2022/08/28 06:07:34;;;;;;;6.75;2.13;;;17.80;99.90;;;;;;5041345;28;20634;-58
2022/08/28 06:09:59;;;;;;;8.32;2.15;;;17.90;99.90;;;;;;5041241;28;20053;-60
2022/08/28 06:12:25;;;;;;;10.25;2.55;;;18.00;99.90;;;;;;5040541;28;20072;-58
2022/08/28 06:14:51;;;;;;;6.60;2.10;;;18.10;99.90;;;;;;5022581;28;20053;-58
2022/08/28 06:17:17;;;;;;;6.22;2.10;;;18.00;99.90;;;;;;5041444;28;20408;-58
2022/08/28 06:19:43;;;;;;;6.32;2.03;;;17.60;99.90;;;;;;5040626;28;20540;-58
2022/08/28 06:22:11;;;;;;;7.60;1.95;;;17.40;99.90;;;;;;5040704;28;20079;-59
2022/08/28 06:24:37;;;;;;;8.77;2.25;;;17.00;99.90;;;;;;5040969;28;20048;-56
2022/08/28 06:27:02;;;;;;;8.75;2.13;;;16.80;99.90;;;;;;5022673;28;20502;-59
2022/08/28 06:29:28;;;;;;;8.10;2.20;;;16.60;99.90;;;;;;5041228;28;20037;-59
2022/08/28 06:31:57;;;;;;;8.38;2.28;;;16.70;99.90;;;;;;5040268;28;20040;-58
2022/08/28 06:34:23;;;;;;;8.38;2.22;;;16.60;99.90;;;;;;5041096;28;20041;-58
2022/08/28 06:36:49;;;;;;;6.13;1.92;;;16.50;99.90;;;;;;5040739;28;20052;-58
2022/08/28 06:39:15;;;;;;;10.10;2.20;;;16.60;99.90;;;;;;5040396;28;20087;-58
2022/08/28 06:41:42;;;;;;;11.93;2.78;;;16.50;99.90;;;;;;5042528;28;20061;-58
2022/08/28 06:44:18;;;;;;;7.53;2.10;;;16.90;99.90;;;;;;5048221;28;20107;-57
2022/08/28 06:46:48;;;;;;;10.27;2.30;;;17.60;99.90;;;;;;5046767;28;20064;-57
2022/08/28 06:49:14;;;;;;;7.55;2.00;;;17.90;99.90;;;;;;5047597;28;20045;-58
2022/08/28 06:51:40;;;;;;;7.13;1.90;;;18.50;99.90;;;;;;5047335;28;20070;-58
2022/08/28 06:54:06;;;;;;;7.90;2.17;;;18.90;99.90;;;;;;5046881;28;20056;-57
2022/08/28 06:56:33;;;;;;;8.40;1.70;;;19.50;99.90;;;;;;5047201;28;20052;-58
2022/08/28 06:58:59;;;;;;;6.68;1.80;;;19.80;99.90;;;;;;5047345;28;20084;-58
2022/08/28 07:01:28;;;;;;;4.75;1.80;;;20.20;99.90;;;;;;5047550;28;20059;-58
2022/08/28 07:03:58;;;;;;;5.95;1.77;;;20.40;99.90;;;;;;5046978;28;20037;-58
2022/08/28 07:06:29;;;;;;;7.85;1.80;;;20.80;99.90;;;;;;5047002;28;20431;-58
2022/08/28 07:08:54;;;;;;;8.48;1.83;;;20.90;99.90;;;;;;5047176;28;20378;-58
2022/08/28 07:11:26;;;;;;;8.13;1.75;;;21.00;99.90;;;;;;5045782;28;20633;-58
2022/08/28 07:13:53;;;;;;;5.50;1.85;;;20.90;99.90;;;;;;5047223;28;20436;-57
2022/08/28 07:16:21;;;;;;;5.88;1.80;;;20.70;99.90;;;;;;5047499;28;20088;-58
2022/08/28 07:18:47;;;;;;;5.15;1.63;;;20.90;99.90;;;;;;5045225;28;20041;-58
2022/08/28 07:21:13;;;;;;;6.53;1.80;;;21.00;99.90;;;;;;5047069;28;20032;-58
2022/08/28 07:23:41;;;;;;;7.53;2.00;;;20.50;99.90;;;;;;5047354;28;20086;-57
2022/08/28 07:26:13;;;;;;;4.63;1.70;;;20.40;99.90;;;;;;5045901;28;20033;-58
2022/08/28 07:28:39;;;;;;;5.47;1.70;;;20.50;99.90;;;;;;5046884;28;20081;-57
2022/08/28 07:31:09;;;;;;;6.38;1.88;;;20.90;99.90;;;;;;5047386;28;20080;-56
2022/08/28 07:33:36;;;;;;;6.03;1.77;;;21.10;99.90;;;;;;5046386;28;20040;-57
2022/08/28 07:36:08;;;;;;;6.35;2.00;;;21.20;99.90;;;;;;5047621;28;20048;-58
2022/08/28 07:38:34;;;;;;;4.47;1.77;;;21.30;99.90;;;;;;5047597;28;20041;-58
2022/08/28 07:41:01;;;;;;;5.50;1.63;;;21.30;99.90;;;;;;5045788;28;20048;-58
2022/08/28 07:46:10;;;;;;;7.05;1.70;;;21.50;99.90;;;;;;5047301;28;20057;-57
2022/08/28 07:48:39;;;;;;;7.18;1.60;;;21.50;99.90;;;;;;5046202;28;20048;-59
2022/08/28 07:51:07;;;;;;;6.10;1.80;;;21.50;99.90;;;;;;5047148;28;20083;-58
2022/08/28 07:53:34;;;;;;;8.10;1.70;;;21.20;99.90;;;;;;5044675;28;20045;-58
2022/08/28 07:56:00;;;;;;;8.43;1.92;;;20.70;99.90;;;;;;5042256;28;20041;-59
2022/08/28 07:58:25;;;;;;;4.95;1.63;;;20.90;99.90;;;;;;5043867;28;20048;-60
2022/08/28 08:00:52;;;;;;;6.38;1.73;;;21.20;99.90;;;;;;5043322;28;20041;-59
2022/08/28 08:03:19;;;;;;;19.05;2.92;;;21.30;99.90;;;;;;5043233;28;20443;-59
2022/08/28 08:05:53;;;;;;;6.03;1.70;;;21.40;99.90;;;;;;5043118;28;20633;-59
2022/08/28 08:08:18;;;;;;;6.38;1.70;;;21.00;99.90;;;;;;5043869;28;20060;-60
2022/08/28 08:10:44;;;;;;;5.55;1.60;;;21.10;99.90;;;;;;5041918;28;20673;-57
2022/08/28 08:13:10;;;;;;;7.60;1.95;;;21.20;99.90;;;;;;5043354;28;20114;-57
2022/08/28 08:15:35;;;;;;;7.97;1.90;;;21.60;99.90;;;;;;5042967;28;20052;-57
2022/08/28 08:18:01;;;;;;;7.18;1.67;;;22.00;99.90;;;;;;5043454;28;20060;-58
2022/08/28 08:20:27;;;;;;;9.27;1.90;;;22.20;99.90;;;;;;5042671;28;20060;-57
2022/08/28 08:22:53;;;;;;;6.95;1.75;;;21.90;99.90;;;;;;5029658;28;20092;-57
2022/08/28 08:25:18;;;;;;;7.18;2.15;;;21.30;99.90;;;;;;5022690;28;20077;-57
2022/08/28 08:27:45;;;;;;;5.72;1.60;;;20.70;99.90;;;;;;5022789;28;20064;-59
2022/08/28 08:30:11;;;;;;;5.70;1.73;;;20.20;99.90;;;;;;5023055;28;20050;-58
2022/08/28 08:32:38;;;;;;;5.70;1.90;;;19.50;99.90;;;;;;5022837;28;20500;-57
2022/08/28 08:35:05;;;;;;;10.38;2.13;;;19.80;99.90;;;;;;5023454;28;20049;-58
2022/08/28 08:37:31;;;;;;;7.05;2.50;;;20.30;99.90;;;;;;5023147;28;20415;-58
2022/08/28 08:39:56;;;;;;;5.88;1.67;;;20.90;99.90;;;;;;5004500;28;20060;-58
2022/08/28 08:42:30;;;;;;;4.85;1.83;;;21.20;99.90;;;;;;5023098;28;20041;-57
2022/08/28 08:44:58;;;;;;;8.13;1.70;;;21.40;99.90;;;;;;5022342;28;20049;-58
2022/08/28 08:47:33;;;;;;;4.47;1.60;;;21.30;99.90;;;;;;5022741;28;20383;-58
2022/08/28 08:50:00;;;;;;;;;;;20.90;99.90;;;;;;5022822;28;20054;-59
2022/08/28 08:52:43;;;;;;;6.70;1.92;;;20.70;99.90;;;;;;5004950;28;20415;-58
2022/08/28 08:55:20;;;;;;;7.68;1.83;;;21.30;99.90;;;;;;5021601;28;20053;-59
2022/08/28 08:57:53;;;;;;;6.72;2.10;;;21.20;99.90;;;;;;5038892;28;20493;-56
2022/08/28 09:00:19;;;;;;;6.05;1.73;;;21.60;99.90;;;;;;5041240;28;20678;-58
2022/08/28 09:02:59;;;;;;;7.85;2.13;;;21.70;99.90;;;;;;5042291;28;20057;-57
2022/08/28 09:05:52;;;;;;;6.43;1.80;;;22.00;99.90;;;;;;5026348;28;20152;-58
2022/08/28 09:08:26;;;;;;;7.57;1.90;;;22.40;99.90;;;;;;5035290;28;20053;-58
2022/08/28 09:11:35;;;;;;;4.88;1.80;;;22.80;99.90;;;;;;5041529;28;20048;-58
2022/08/28 09:14:29;;;;;;;5.22;1.50;;;23.10;99.90;;;;;;5032171;28;20060;-58
2022/08/28 09:16:57;;;;;;;5.35;1.70;;;23.10;99.90;;;;;;5041353;28;20287;-58
2022/08/28 09:19:22;;;;;;;7.65;1.67;;;23.50;99.90;;;;;;5041691;28;20041;-58
2022/08/28 09:21:50;;;;;;;5.80;1.50;;;23.50;99.90;;;;;;5041787;28;20052;-57
2022/08/28 09:24:27;;;;;;;4.38;1.70;;;23.20;99.90;;;;;;5041776;28;20604;-58
2022/08/28 09:26:55;;;;;;;5.88;1.65;;;22.80;99.90;;;;;;5041013;28;20045;-58
2022/08/28 09:29:53;;;;;;;6.07;1.40;;;22.60;99.90;;;;;;5024099;28;20055;-58
2022/08/28 09:32:28;;;;;;;5.60;2.10;;;22.10;99.90;;;;;;5041368;28;20044;-58
2022/08/28 09:35:23;;;;;;;8.48;1.80;;;22.50;99.90;;;;;;5023445;28;20068;-57
2022/08/28 09:37:49;;;;;;;7.47;1.98;;;23.00;99.90;;;;;;5033757;28;20103;-58
2022/08/28 09:40:18;;;;;;;7.88;2.20;;;23.00;99.90;;;;;;5040543;28;20040;-58
2022/08/28 09:43:26;;;;;;;6.75;1.73;;;22.50;99.90;;;;;;5041103;28;20133;-58
2022/08/28 09:45:59;;;;;;;7.00;1.95;;;22.30;99.90;;;;;;4991874;28;20156;-58
2022/08/28 09:48:35;;;;;;;7.88;2.53;;;22.20;99.90;;;;;;5022242;28;20041;-58
2022/08/28 09:51:03;;;;;;;6.55;1.75;;;21.90;99.90;;;;;;5021479;28;20124;-58
2022/08/28 09:53:35;;;;;;;6.75;1.95;;;22.20;99.90;;;;;;5022238;28;20052;-58
2022/08/28 09:56:07;;;;;;;3.95;1.70;;;22.10;99.90;;;;;;5020435;28;20041;-58
2022/08/28 09:58:35;;;;;;;5.25;1.90;;;21.90;99.90;;;;;;5020094;28;20045;-56
2022/08/28 10:01:28;;;;;;;5.20;1.70;;;22.50;99.90;;;;;;5040271;28;20068;-60
2022/08/28 10:04:02;;;;;;;8.70;2.17;;;22.40;99.90;;;;;;5058123;28;20699;-57
2022/08/28 10:06:34;;;;;;;5.03;1.88;;;22.00;99.90;;;;;;5033037;28;20082;-58
2022/08/28 10:09:53;;;;;;;7.97;1.90;;;21.90;99.90;;;;;;5027324;28;20084;-58
2022/08/28 10:13:06;;;;;;;6.30;2.00;;;21.40;99.90;;;;;;4978204;28;20054;-58
2022/08/28 10:15:57;;;;;;;10.15;2.20;;;21.10;99.90;;;;;;4870060;29;20044;-58
2022/08/28 10:18:43;;;;;;;8.70;2.13;;;20.90;99.90;;;;;;4958932;28;20054;-57
2022/08/28 10:21:13;;;;;;;7.45;2.20;;;20.60;99.90;;;;;;5024535;28;21467;-57
2022/08/28 10:23:53;;;;;;;7.50;2.15;;;20.60;99.90;;;;;;5040199;28;20041;-57
2022/08/28 10:26:32;;;;;;;6.13;1.70;;;21.00;99.90;;;;;;5039250;28;20077;-58
2022/08/28 10:29:12;;;;;;;5.30;1.90;;;21.70;99.90;;;;;;5040500;28;20124;-58
2022/08/28 10:32:23;;;;;;;11.85;2.15;;;22.10;99.90;;;;;;5039673;28;20106;-57
2022/08/28 10:35:04;;;;;;;5.00;1.65;;;23.00;99.90;;;;;;4977543;28;20046;-58
2022/08/28 10:38:07;;;;;;;5.00;1.48;;;22.80;99.90;;;;;;4978472;28;20046;-57
2022/08/28 10:40:35;;;;;;;7.13;1.77;;;22.60;99.90;;;;;;5031816;28;20057;-57
2022/08/28 10:43:07;;;;;;;7.15;2.20;;;23.20;99.90;;;;;;5040470;28;20048;-57
2022/08/28 10:45:34;;;;;;;4.88;1.70;;;23.60;99.90;;;;;;5022082;28;20041;-57
2022/08/28 10:48:27;;;;;;;5.15;1.83;;;24.10;99.90;;;;;;5039505;28;20877;-56
2022/08/28 10:50:58;;;;;;;8.25;2.00;;;24.00;99.90;;;;;;5020750;28;20610;-57
2022/08/28 10:53:27;;;;;;;5.63;1.88;;;23.50;99.90;;;;;;5039269;28;20680;-57
2022/08/28 10:56:05;;;;;;;5.65;1.83;;;23.50;99.90;;;;;;5038899;28;20037;-57
2022/08/28 10:58:35;;;;;;;8.10;1.95;;;23.50;99.90;;;;;;5040626;28;20418;-57
2022/08/28 11:01:07;;;;;;;19.58;2.25;;;24.00;99.90;;;;;;5041848;28;20120;-57
2022/08/28 11:03:45;;;;;;;6.25;1.95;;;23.80;99.90;;;;;;5060613;28;20132;-56
2022/08/28 11:06:21;;;;;;;7.68;1.88;;;23.50;99.90;;;;;;5049377;28;20507;-57
2022/08/28 11:08:53;;;;;;;6.25;1.60;;;22.90;99.90;;;;;;5039934;28;20097;-57
2022/08/28 11:11:44;;;;;;;6.53;2.25;;;22.60;99.90;;;;;;5038772;28;20420;-56
2022/08/28 11:14:22;;;;;;;5.75;2.00;;;22.10;99.90;;;;;;5022525;28;20179;-57
2022/08/28 11:16:48;;;;;;;4.28;1.58;;;22.40;99.90;;;;;;5039819;28;20095;-58
2022/08/28 11:19:35;;;;;;;10.15;1.90;;;22.90;99.90;;;;;;5039850;28;20044;-56
2022/08/28 11:22:18;;;;;;;7.05;2.03;;;23.20;99.90;;;;;;5039848;28;20110;-57
2022/08/28 11:25:05;;;;;;;6.18;1.90;;;23.70;99.90;;;;;;5038569;28;20037;-57
2022/08/28 11:27:34;;;;;;;6.22;1.70;;;23.00;99.90;;;;;;5026223;28;20135;-57
2022/08/28 11:30:13;;;;;;;7.47;1.80;;;22.30;99.90;;;;;;5044037;28;20052;-60
2022/08/28 11:32:39;;;;;;;6.63;1.77;;;22.00;99.90;;;;;;5043040;28;20110;-58
2022/08/28 11:35:26;;;;;;;6.85;1.88;;;22.20;99.90;;;;;;5042915;28;20037;-57
2022/08/28 11:37:56;;;;;;;4.85;1.55;;;22.90;99.90;;;;;;5042931;28;20049;-57
2022/08/28 11:40:27;;;;;;;4.63;1.98;;;23.00;99.90;;;;;;5043438;28;20064;-57
2022/08/28 11:43:15;;;;;;;4.40;1.90;;;23.30;99.90;;;;;;5038737;28;20045;-58
2022/08/28 11:45:53;;;;;;;6.78;2.42;;;23.60;99.90;;;;;;5023393;28;20136;-57
2022/08/28 11:48:22;;;;;;;6.05;1.90;;;23.90;99.90;;;;;;5024085;28;20501;-57
2022/08/28 11:51:05;;;;;;;6.75;2.00;;;24.20;99.90;;;;;;5023450;28;20451;-57
2022/08/28 11:53:49;;;;;;;5.13;2.00;;;23.90;99.90;;;;;;5026376;28;20075;-57
2022/08/28 11:56:43;;;;;;;4.85;2.10;;;23.00;99.90;;;;;;5041636;28;20519;-60
2022/08/28 11:59:24;;;;;;;6.68;2.10;;;23.00;99.90;;;;;;5042925;28;20055;-57
2022/08/28 12:01:50;;;;;;;5.80;2.15;;;23.70;99.90;;;;;;5043431;28;20303;-57
2022/08/28 12:04:21;;;;;;;7.03;2.60;;;23.80;99.90;;;;;;5043736;28;20049;-59
2022/08/28 12:07:11;;;;;;;6.07;2.28;;;23.50;99.90;;;;;;5041891;28;20045;-57
2022/08/28 12:09:44;;;;;;;6.50;1.90;;;22.70;99.90;;;;;;5022576;28;20136;-57
2022/08/28 12:12:21;;;;;;;5.95;1.92;;;22.80;99.90;;;;;;5022534;28;20492;-58
2022/08/28 12:14:47;;;;;;;5.28;2.20;;;23.20;99.90;;;;;;5023252;28;20053;-57
2022/08/28 12:17:22;;;;;;;5.25;1.83;;;23.20;99.90;;;;;;5023815;28;20049;-60
2022/08/28 12:19:57;;;;;;;6.13;1.92;;;23.30;99.90;;;;;;5023261;28;20418;-57
2022/08/28 12:22:38;;;;;;;6.30;2.10;;;23.00;99.90;;;;;;5021929;28;20049;-58
2022/08/28 12:25:05;;;;;;;6.53;1.85;;;23.20;99.90;;;;;;5022584;28;20042;-59
2022/08/28 12:27:37;;;;;;;4.82;1.95;;;23.50;99.90;;;;;;5005611;28;20052;-58
2022/08/28 12:30:03;;;;;;;8.13;2.22;;;23.30;99.90;;;;;;5022804;28;20049;-58
2022/08/28 12:32:54;;;;;;;6.13;2.17;;;22.90;99.90;;;;;;5023115;28;20052;-58
2022/08/28 12:35:24;;;;;;;4.53;1.85;;;22.60;99.90;;;;;;5022981;28;20132;-59
2022/08/28 12:37:52;;;;;;;7.93;2.20;;;22.70;99.90;;;;;;5022492;28;20126;-58
2022/08/28 12:40:29;;;;;;;5.93;2.13;;;22.70;99.90;;;;;;5021591;28;20128;-58
2022/08/28 12:43:22;;;;;;;7.50;3.05;;;22.80;99.90;;;;;;5022036;28;20535;-57
2022/08/28 12:45:52;;;;;;;6.97;2.20;;;23.40;99.90;;;;;;5022383;28;20052;-59
2022/08/28 12:48:47;;;;;;;7.97;2.33;;;23.50;99.90;;;;;;5022605;28;20049;-59
2022/08/28 12:51:20;;;;;;;5.50;1.90;;;23.30;99.90;;;;;;5022698;28;20415;-58
2022/08/28 12:53:52;;;;;;;5.55;1.90;;;23.50;99.90;;;;;;5022413;28;20125;-59
2022/08/28 12:56:19;;;;;;;6.32;1.73;;;23.80;99.90;;;;;;5021536;28;20057;-60
2022/08/28 12:58:46;;;;;;;4.65;2.00;;;23.90;99.90;;;;;;5022174;28;20042;-59
2022/08/28 13:01:19;;;;;;;4.90;1.80;;;24.00;99.90;;;;;;5022201;28;20053;-59
2022/08/28 13:03:55;;;;;;;4.10;1.73;;;23.90;99.90;;;;;;5022017;28;20106;-58
2022/08/28 13:06:34;;;;;;;4.25;1.80;;;23.40;99.90;;;;;;5032526;28;20036;-58
2022/08/28 13:09:06;;;;;;;7.90;1.55;;;23.20;99.90;;;;;;5041917;28;20076;-57